createdAt,value
2022-10-15T00:01:48.678Z,27.33
2022-10-15T00:04:17.595Z,25.35
2022-10-15T00:06:45.883Z,26.83
2022-10-15T00:09:15.504Z,25.55
2022-10-15T00:11:43.746Z,26.15
2022-10-15T00:14:12.016Z,27.00
2022-10-15T00:16:40.433Z,26.98
2022-10-15T00:19:08.606Z,26.77
2022-10-15T00:21:37.368Z,28.65
2022-10-15T00:24:06.495Z,27.65
2022-10-15T00:26:36.181Z,28.60
2022-10-15T00:29:05.819Z,27.98
2022-10-15T00:31:34.904Z,28.70
2022-10-15T00:34:03.831Z,27.92
2022-10-15T00:36:34.688Z,28.00
2022-10-15T00:39:05.546Z,28.70
2022-10-15T00:41:37.942Z,29.55
2022-10-15T00:44:48.794Z,29.38
2022-10-15T00:47:20.415Z,29.90
2022-10-15T00:49:55.135Z,28.38
2022-10-15T00:52:28.492Z,30.23
2022-10-15T00:55:02.081Z,30.50
2022-10-15T00:57:32.458Z,29.70
2022-10-15T01:00:09.183Z,28.92
2022-10-15T01:02:37.591Z,31.77
2022-10-15T01:05:07.264Z,31.27
2022-10-15T01:07:35.731Z,29.97
2022-10-15T01:10:05.530Z,30.25
2022-10-15T01:12:53.963Z,29.65
2022-10-15T01:15:30.185Z,29.83
2022-10-15T01:18:04.854Z,30.35
2022-10-15T01:21:10.396Z,30.90
2022-10-15T01:24:53.497Z,30.65
2022-10-15T01:27:37.514Z,31.92
2022-10-15T01:30:32.111Z,31.50
2022-10-15T01:33:28.739Z,29.73
2022-10-15T01:36:08.422Z,30.02
2022-10-15T01:38:49.919Z,32.05
2022-10-15T01:41:27.998Z,30.77
2022-10-15T01:44:02.564Z,31.90
2022-10-15T01:47:00.166Z,31.30
2022-10-15T01:49:32.964Z,30.40
2022-10-15T01:52:10.571Z,31.60
2022-10-15T01:54:39.543Z,31.10
2022-10-15T01:57:09.538Z,30.05
2022-10-15T01:59:38.094Z,28.75
2022-10-15T02:02:07.674Z,28.92
2022-10-15T02:04:36.241Z,28.50
2022-10-15T02:07:08.550Z,27.92
2022-10-15T02:09:51.674Z,27.95
2022-10-15T02:12:33.313Z,28.67
2022-10-15T02:15:12.131Z,29.38
2022-10-15T02:17:47.595Z,31.45
2022-10-15T02:20:22.131Z,30.17
2022-10-15T02:22:57.458Z,30.35
2022-10-15T02:25:27.076Z,30.05
2022-10-15T02:27:58.123Z,30.83
2022-10-15T02:30:30.291Z,32.33
2022-10-15T02:33:00.860Z,30.50
2022-10-15T02:35:29.696Z,31.85
2022-10-15T02:38:03.648Z,31.52
2022-10-15T02:40:36.974Z,30.55
2022-10-15T02:43:07.830Z,30.30
2022-10-15T02:45:36.639Z,30.73
2022-10-15T02:48:07.995Z,28.90
2022-10-15T02:50:36.739Z,29.30
2022-10-15T02:53:05.604Z,29.13
2022-10-15T02:55:35.189Z,27.30
2022-10-15T02:58:03.549Z,28.10
2022-10-15T03:00:32.227Z,28.20
2022-10-15T03:03:00.816Z,27.52
2022-10-15T03:05:31.236Z,29.75
2022-10-15T03:08:01.296Z,29.17
2022-10-15T03:13:04.637Z,28.10
2022-10-15T03:15:37.677Z,28.05
2022-10-15T03:18:06.938Z,29.30
2022-10-15T03:20:37.825Z,29.48
2022-10-15T03:23:06.238Z,28.73
2022-10-15T03:25:34.646Z,31.08
2022-10-15T03:28:06.145Z,30.02
2022-10-15T03:30:41.416Z,29.52
2022-10-15T03:33:09.920Z,29.77
2022-10-15T03:35:40.871Z,29.70
2022-10-15T03:38:10.582Z,29.13
2022-10-15T03:40:39.279Z,28.58
2022-10-15T03:43:27.976Z,27.73
2022-10-15T03:45:57.444Z,28.85
2022-10-15T03:48:26.359Z,28.63
2022-10-15T03:50:56.198Z,28.65
2022-10-15T03:53:24.716Z,28.60
2022-10-15T03:55:53.113Z,28.27
2022-10-15T03:58:21.615Z,29.50
2022-10-15T04:00:56.171Z,29.30
2022-10-15T04:03:24.566Z,29.58
2022-10-15T04:05:55.995Z,29.30
2022-10-15T04:08:29.220Z,28.63
2022-10-15T04:10:59.142Z,29.20
2022-10-15T04:13:28.373Z,29.90
2022-10-15T04:15:57.432Z,28.02
2022-10-15T04:18:25.983Z,31.13
2022-10-15T04:21:00.203Z,30.52
2022-10-15T04:23:29.125Z,29.58
2022-10-15T04:26:16.098Z,31.75
2022-10-15T04:28:44.641Z,30.63
2022-10-15T04:31:13.101Z,31.10
2022-10-15T04:33:41.716Z,30.20
2022-10-15T04:36:14.988Z,29.85
2022-10-15T04:39:04.697Z,32.67
2022-10-15T04:41:42.401Z,32.13
2022-10-15T04:44:22.362Z,33.58
2022-10-15T04:46:56.110Z,30.38
2022-10-15T04:49:34.234Z,31.65
2022-10-15T04:52:10.073Z,32.17
2022-10-15T04:54:47.001Z,31.45
2022-10-15T04:59:44.449Z,30.95
2022-10-15T05:02:32.945Z,33.20
2022-10-15T05:05:39.855Z,30.83
2022-10-15T05:08:10.094Z,31.40
2022-10-15T05:11:03.017Z,30.52
2022-10-15T05:13:33.084Z,30.40
2022-10-15T05:18:38.953Z,31.00
2022-10-15T05:21:08.004Z,30.15
2022-10-15T05:23:39.036Z,30.15
2022-10-15T05:26:32.176Z,31.95
2022-10-15T05:29:01.703Z,31.30
2022-10-15T05:31:34.589Z,31.23
2022-10-15T05:34:14.299Z,31.70
2022-10-15T05:36:48.948Z,31.70
2022-10-15T05:39:19.044Z,30.98
2022-10-15T05:41:47.587Z,30.85
2022-10-15T05:44:16.148Z,30.48
2022-10-15T05:46:44.485Z,28.42
2022-10-15T05:49:19.191Z,29.77
2022-10-15T05:52:02.464Z,29.30
2022-10-15T05:54:49.556Z,29.58
2022-10-15T05:57:17.948Z,31.63
2022-10-15T05:59:46.232Z,30.08
2022-10-15T06:02:16.325Z,26.30
2022-10-15T06:04:44.870Z,27.58
2022-10-15T06:07:13.175Z,27.85
2022-10-15T06:09:41.572Z,27.08
2022-10-15T06:12:11.238Z,28.40
2022-10-15T06:14:39.468Z,28.08
2022-10-15T06:17:08.379Z,26.95
2022-10-15T06:19:36.664Z,28.17
2022-10-15T06:22:05.150Z,28.08
2022-10-15T06:24:33.459Z,29.23
2022-10-15T06:27:02.927Z,32.08
2022-10-15T06:29:32.652Z,33.85
2022-10-15T06:32:02.962Z,34.17
2022-10-15T06:34:31.395Z,33.90
2022-10-15T06:36:59.679Z,35.95
2022-10-15T06:39:28.009Z,39.15
2022-10-15T06:41:56.294Z,38.08
2022-10-15T06:44:32.892Z,38.38
2022-10-15T06:47:01.212Z,40.92
2022-10-15T06:49:29.505Z,42.97
2022-10-15T06:52:02.584Z,44.08
2022-10-15T06:54:32.290Z,45.00
2022-10-15T06:57:00.596Z,43.55
2022-10-15T06:59:28.853Z,45.28
2022-10-15T07:01:59.030Z,45.42
2022-10-15T07:04:27.374Z,46.42
2022-10-15T07:06:55.654Z,46.20
2022-10-15T07:09:26.132Z,47.33
2022-10-15T07:11:54.474Z,45.92
2022-10-15T07:14:22.761Z,42.35
2022-10-15T07:16:51.175Z,42.17
2022-10-15T07:19:21.294Z,39.90
2022-10-15T07:24:19.667Z,34.33
2022-10-15T07:26:49.088Z,32.50
2022-10-15T07:29:17.840Z,31.02
2022-10-15T07:31:47.741Z,30.40
2022-10-15T07:34:18.165Z,31.08
2022-10-15T07:36:47.894Z,31.88
2022-10-15T07:39:18.928Z,32.67
2022-10-15T07:41:47.224Z,28.75
2022-10-15T07:44:15.453Z,27.40
2022-10-15T07:46:43.809Z,26.10
2022-10-15T07:49:12.142Z,31.27
2022-10-15T07:51:40.463Z,32.17
2022-10-15T07:54:10.129Z,31.90
2022-10-15T07:56:38.437Z,31.07
2022-10-15T07:59:06.679Z,33.97
2022-10-15T08:01:35.195Z,34.58
2022-10-15T08:04:04.171Z,35.28
2022-10-15T08:06:33.448Z,37.47
2022-10-15T08:09:01.760Z,38.00
2022-10-15T08:11:32.069Z,40.83
2022-10-15T08:14:00.490Z,38.10
2022-10-15T08:16:28.855Z,37.47
2022-10-15T08:19:00.605Z,37.05
2022-10-15T08:21:28.970Z,40.05
2022-10-15T08:23:57.193Z,42.13
2022-10-15T08:26:36.018Z,42.45
2022-10-15T08:29:04.632Z,43.33
2022-10-15T08:31:33.301Z,42.50
2022-10-15T08:34:01.942Z,40.28
2022-10-15T08:36:30.486Z,39.15
2022-10-15T08:38:59.280Z,39.60
2022-10-15T08:41:37.137Z,39.50
2022-10-15T08:44:06.410Z,39.80
2022-10-15T08:46:39.964Z,38.17
2022-10-15T08:49:15.744Z,39.78
2022-10-15T08:51:53.506Z,36.08
2022-10-15T08:54:22.113Z,32.25
2022-10-15T08:57:03.586Z,28.90
2022-10-15T08:59:38.762Z,30.45
2022-10-15T09:02:18.383Z,28.52
2022-10-15T09:04:55.378Z,30.48
2022-10-15T09:07:31.246Z,30.65
2022-10-15T09:10:12.272Z,32.90
2022-10-15T09:12:52.498Z,33.50
2022-10-15T09:15:25.491Z,32.75
2022-10-15T09:17:57.008Z,32.75
2022-10-15T09:20:34.070Z,31.88
2022-10-15T09:23:02.898Z,33.85
2022-10-15T09:25:37.147Z,34.17
2022-10-15T09:28:17.002Z,34.75
2022-10-15T09:30:50.953Z,30.42
2022-10-15T09:33:34.924Z,33.33
2022-10-15T09:36:24.867Z,32.85
2022-10-15T09:39:06.326Z,31.55
2022-10-15T09:41:51.640Z,30.77
2022-10-15T09:44:26.548Z,29.73
2022-10-15T09:46:54.867Z,29.20
2022-10-15T09:49:29.358Z,27.75
2022-10-15T09:52:10.432Z,28.63
2022-10-15T09:54:47.405Z,25.88
2022-10-15T09:57:18.736Z,25.30
2022-10-15T10:00:14.784Z,25.42
2022-10-15T10:02:44.210Z,23.65
2022-10-15T10:05:30.541Z,24.27
2022-10-15T10:08:11.071Z,20.90
2022-10-15T10:10:41.854Z,21.92
2022-10-15T10:13:25.891Z,20.05
2022-10-15T10:15:59.481Z,18.77
2022-10-15T10:18:28.251Z,18.05
2022-10-15T10:20:59.909Z,17.73
2022-10-15T10:23:34.823Z,17.88
2022-10-15T10:26:04.642Z,16.25
2022-10-15T10:28:39.383Z,16.57
2022-10-15T10:31:13.653Z,15.85
2022-10-15T10:33:47.746Z,14.63
2022-10-15T10:36:28.382Z,15.07
2022-10-15T10:39:02.796Z,15.00
2022-10-15T10:41:50.503Z,15.63
2022-10-15T10:44:30.921Z,14.95
2022-10-15T10:47:16.462Z,13.05
2022-10-15T10:49:47.401Z,13.93
2022-10-15T10:52:28.928Z,13.18
2022-10-15T10:55:03.024Z,13.45
2022-10-15T10:57:42.648Z,13.55
2022-10-15T11:00:17.607Z,12.93
2022-10-15T11:02:52.728Z,13.25
2022-10-15T11:05:28.895Z,13.10
2022-10-15T11:08:09.964Z,13.02
2022-10-15T11:10:47.106Z,12.25
2022-10-15T11:13:39.084Z,12.50
2022-10-15T11:16:20.725Z,12.77
2022-10-15T11:19:19.715Z,12.95
2022-10-15T11:22:15.638Z,13.63
2022-10-15T11:25:05.895Z,14.50
2022-10-15T11:27:51.824Z,15.27
2022-10-15T11:30:39.640Z,14.27
2022-10-15T11:33:28.874Z,15.57
2022-10-15T11:36:21.420Z,14.00
2022-10-15T11:39:01.481Z,12.65
2022-10-15T11:41:44.937Z,12.52
2022-10-15T11:44:33.922Z,12.07
2022-10-15T11:47:25.464Z,11.27
2022-10-15T11:50:09.436Z,11.75
2022-10-15T11:52:59.477Z,11.38
2022-10-15T11:55:36.508Z,10.73
2022-10-15T11:58:13.198Z,11.05
2022-10-15T12:00:46.875Z,11.40
2022-10-15T12:03:20.959Z,10.05
2022-10-15T12:05:54.908Z,10.80
2022-10-15T12:08:29.499Z,10.38
2022-10-15T12:11:22.079Z,9.13
2022-10-15T12:13:58.023Z,10.15
2022-10-15T12:16:35.024Z,10.05
2022-10-15T12:19:15.376Z,9.10
2022-10-15T12:22:06.898Z,9.10
2022-10-15T12:24:56.682Z,9.23
2022-10-15T12:27:35.538Z,9.13
2022-10-15T12:30:23.742Z,8.43
2022-10-15T12:32:53.987Z,8.38
2022-10-15T12:35:45.566Z,7.97
2022-10-15T12:38:28.194Z,8.07
2022-10-15T12:41:11.107Z,7.65
2022-10-15T12:43:43.384Z,7.90
2022-10-15T12:46:12.991Z,7.80
2022-10-15T12:48:43.772Z,6.60
2022-10-15T12:51:39.398Z,6.40
2022-10-15T12:54:41.577Z,5.35
2022-10-15T12:57:55.767Z,5.10
2022-10-15T13:00:42.615Z,3.92
2022-10-15T13:03:43.796Z,3.20
2022-10-15T13:06:34.321Z,2.60
2022-10-15T13:09:25.247Z,2.75
2022-10-15T13:11:55.888Z,2.97
2022-10-15T13:14:32.974Z,3.13
2022-10-15T13:17:05.338Z,2.58
2022-10-15T13:19:39.735Z,2.72
2022-10-15T13:22:22.368Z,3.00
2022-10-15T13:24:50.797Z,3.05
2022-10-15T13:27:26.992Z,2.80
2022-10-15T13:29:59.387Z,2.55
2022-10-15T13:32:30.833Z,2.55
2022-10-15T13:35:00.039Z,3.00
2022-10-15T13:37:36.244Z,3.17
2022-10-15T13:40:08.040Z,2.78
2022-10-15T13:42:36.914Z,3.50
2022-10-15T13:45:18.904Z,2.95
2022-10-15T13:47:50.491Z,2.95
2022-10-15T13:50:23.021Z,2.85
2022-10-15T13:52:55.314Z,2.97
2022-10-15T13:55:28.530Z,2.80
2022-10-15T13:58:01.662Z,3.38
2022-10-15T14:00:35.062Z,2.92
2022-10-15T14:03:25.745Z,2.80
2022-10-15T14:05:56.742Z,3.38
2022-10-15T14:08:29.766Z,3.33
2022-10-15T14:11:00.418Z,2.90
2022-10-15T14:16:15.294Z,3.28
2022-10-15T14:18:49.159Z,2.85
2022-10-15T14:21:21.100Z,2.90
2022-10-15T14:23:50.939Z,2.80
2022-10-15T14:26:25.835Z,3.00
2022-10-15T14:28:55.892Z,3.00
2022-10-15T14:31:42.491Z,3.40
2022-10-15T14:34:30.325Z,3.03
2022-10-15T14:36:58.952Z,2.97
2022-10-15T14:39:31.719Z,2.92
2022-10-15T14:42:02.494Z,3.15
2022-10-15T14:44:44.557Z,3.13
2022-10-15T14:47:22.282Z,3.45
2022-10-15T14:49:54.181Z,2.75
2022-10-15T14:52:23.634Z,3.25
2022-10-15T14:55:04.287Z,3.35
2022-10-15T14:57:37.512Z,3.33
2022-10-15T15:00:22.072Z,3.00
2022-10-15T15:02:52.061Z,2.88
2022-10-15T15:05:24.203Z,3.13
2022-10-15T15:07:52.899Z,2.92
2022-10-15T15:10:21.770Z,2.97
2022-10-15T15:12:54.904Z,3.03
2022-10-15T15:15:26.498Z,3.03
2022-10-15T15:17:56.227Z,3.15
2022-10-15T15:20:25.982Z,2.87
2022-10-15T15:22:56.418Z,3.70
2022-10-15T15:25:33.629Z,3.20
2022-10-15T15:28:02.305Z,2.88
2022-10-15T15:30:34.330Z,3.67
2022-10-15T15:33:04.153Z,3.20
2022-10-15T15:35:41.059Z,3.27
2022-10-15T15:38:09.524Z,3.42
2022-10-15T15:40:37.850Z,3.00
2022-10-15T15:43:06.279Z,3.47
2022-10-15T15:45:34.825Z,3.38
2022-10-15T15:48:05.223Z,3.22
2022-10-15T15:50:33.685Z,3.33
2022-10-15T15:53:01.974Z,3.95
2022-10-15T15:55:30.585Z,3.53
2022-10-15T15:57:58.853Z,3.53
2022-10-15T16:00:27.260Z,3.22
2022-10-15T16:02:57.907Z,3.42
2022-10-15T16:05:28.065Z,3.53
2022-10-15T16:07:56.394Z,3.90
2022-10-15T16:10:25.250Z,4.10
2022-10-15T16:12:53.726Z,3.88
2022-10-15T16:15:21.980Z,3.90
2022-10-15T16:17:50.354Z,4.63
2022-10-15T16:20:18.808Z,3.75
2022-10-15T16:22:51.103Z,4.15
2022-10-15T16:25:19.644Z,4.07
2022-10-15T16:27:49.310Z,3.60
2022-10-15T16:30:17.996Z,4.00
2022-10-15T16:32:46.458Z,4.60
2022-10-15T16:35:14.882Z,4.28
2022-10-15T16:37:43.181Z,4.63
2022-10-15T16:40:14.943Z,3.83
2022-10-15T16:42:43.279Z,3.90
2022-10-15T16:45:12.452Z,4.20
2022-10-15T16:47:40.695Z,4.07
2022-10-15T16:50:10.443Z,4.38
2022-10-15T16:52:38.901Z,4.50
2022-10-15T16:55:08.158Z,4.60
2022-10-15T16:57:37.869Z,4.60
2022-10-15T17:00:07.455Z,4.80
2022-10-15T17:02:35.714Z,4.63
2022-10-15T17:05:04.107Z,5.35
2022-10-15T17:07:32.626Z,4.35
2022-10-15T17:10:00.995Z,5.07
2022-10-15T17:12:29.605Z,4.97
2022-10-15T17:14:59.237Z,4.38
2022-10-15T17:17:27.699Z,4.55
2022-10-15T17:19:55.992Z,4.95
2022-10-15T17:22:24.902Z,5.15
2022-10-15T17:24:53.538Z,4.82
2022-10-15T17:27:21.823Z,4.70
2022-10-15T17:29:50.134Z,4.60
2022-10-15T17:32:19.820Z,4.25
2022-10-15T17:34:48.327Z,4.27
2022-10-15T17:37:16.785Z,4.22
2022-10-15T17:39:45.280Z,4.78
2022-10-15T17:42:15.689Z,4.18
2022-10-15T17:44:44.006Z,5.00
2022-10-15T17:47:13.395Z,4.25
2022-10-15T17:49:43.069Z,4.90
2022-10-15T17:52:11.826Z,4.95
2022-10-15T17:54:40.331Z,4.65
2022-10-15T17:57:08.632Z,4.88
2022-10-15T17:59:36.985Z,4.70
2022-10-15T18:02:05.453Z,3.85
2022-10-15T18:04:40.502Z,4.28
2022-10-15T18:07:10.201Z,4.05
2022-10-15T18:09:38.595Z,4.00
2022-10-15T18:12:07.513Z,3.83
2022-10-15T18:14:36.886Z,4.35
2022-10-15T18:17:06.316Z,4.50
2022-10-15T18:19:34.681Z,4.50
2022-10-15T18:22:02.982Z,4.13
2022-10-15T18:24:33.125Z,4.25
2022-10-15T18:27:06.172Z,3.80
2022-10-15T18:29:35.995Z,3.90
2022-10-15T18:32:04.684Z,3.55
2022-10-15T18:34:34.229Z,4.22
2022-10-15T18:37:02.544Z,3.88
2022-10-15T18:39:32.231Z,3.80
2022-10-15T18:42:00.596Z,4.37
2022-10-15T18:44:29.342Z,3.92
2022-10-15T18:46:57.708Z,4.10
2022-10-15T18:49:26.230Z,3.53
2022-10-15T18:51:55.434Z,3.50
2022-10-15T18:54:24.097Z,4.45
2022-10-15T18:56:53.886Z,4.20
2022-10-15T18:59:22.426Z,4.30
2022-10-15T19:01:53.743Z,3.60
2022-10-15T19:04:24.492Z,4.30
2022-10-15T19:09:26.473Z,4.03
2022-10-15T19:11:58.297Z,3.63
2022-10-15T19:14:29.162Z,4.00
2022-10-15T19:16:58.356Z,3.70
2022-10-15T19:19:27.549Z,3.75
2022-10-15T19:21:58.847Z,3.90
2022-10-15T19:24:27.149Z,3.75
2022-10-15T19:26:57.028Z,3.63
2022-10-15T19:29:25.470Z,4.22
2022-10-15T19:31:56.785Z,3.65
2022-10-15T19:34:25.594Z,3.92
2022-10-15T19:36:53.961Z,3.80
2022-10-15T19:39:24.913Z,4.03
2022-10-15T19:41:54.379Z,3.97
2022-10-15T19:44:27.614Z,5.03
2022-10-15T19:46:56.359Z,4.00
2022-10-15T19:49:25.296Z,3.97
2022-10-15T19:51:54.799Z,4.43
2022-10-15T19:56:56.765Z,4.20
2022-10-15T19:59:26.535Z,3.72
2022-10-15T20:01:54.923Z,4.10
2022-10-15T20:04:23.727Z,3.92
2022-10-15T20:06:52.879Z,4.03
2022-10-15T20:09:21.192Z,4.22
2022-10-15T20:11:49.592Z,4.22
2022-10-15T20:14:17.870Z,4.50
2022-10-15T20:16:47.580Z,4.70
2022-10-15T20:19:15.970Z,4.43
2022-10-15T20:21:44.415Z,4.28
2022-10-15T20:24:12.722Z,4.13
2022-10-15T20:26:40.999Z,3.90
2022-10-15T20:29:09.595Z,4.13
2022-10-15T20:31:37.900Z,4.40
2022-10-15T20:34:07.569Z,4.30
2022-10-15T20:36:41.099Z,3.92
2022-10-15T20:39:09.516Z,4.28
2022-10-15T20:41:38.003Z,4.15
2022-10-15T20:44:06.715Z,3.85
2022-10-15T20:46:39.769Z,3.95
2022-10-15T20:49:16.258Z,4.15
2022-10-15T20:51:46.342Z,3.92
2022-10-15T20:54:16.716Z,4.22
2022-10-15T20:56:45.062Z,3.50
2022-10-15T20:59:13.915Z,3.78
2022-10-15T21:01:42.507Z,4.07
2022-10-15T21:04:12.262Z,4.20
2022-10-15T21:06:40.872Z,4.33
2022-10-15T21:09:09.326Z,4.65
2022-10-15T21:11:42.700Z,4.65
2022-10-15T21:14:11.366Z,4.47
2022-10-15T21:16:39.920Z,4.18
2022-10-15T21:19:08.447Z,4.10
2022-10-15T21:21:38.129Z,3.90
2022-10-15T21:24:07.137Z,4.00
2022-10-15T21:26:35.377Z,4.47
2022-10-15T21:29:03.823Z,3.75
2022-10-15T21:31:32.268Z,4.63
2022-10-15T21:34:00.590Z,3.95
2022-10-15T21:36:30.053Z,4.63
2022-10-15T21:39:02.508Z,3.55
2022-10-15T21:41:33.602Z,3.80
2022-10-15T21:44:03.138Z,3.50
2022-10-15T21:46:32.266Z,4.22
2022-10-15T21:49:01.567Z,3.85
2022-10-15T21:51:32.218Z,3.60
2022-10-15T21:54:04.305Z,3.15
2022-10-15T21:56:32.824Z,3.33
2022-10-15T21:59:01.266Z,3.50
2022-10-15T22:01:32.177Z,3.45
2022-10-15T22:04:02.609Z,3.30
2022-10-15T22:06:31.994Z,3.50
2022-10-15T22:09:02.800Z,2.88
2022-10-15T22:11:34.968Z,3.40
2022-10-15T22:14:07.574Z,3.00
2022-10-15T22:16:38.611Z,3.70
2022-10-15T22:19:09.155Z,3.22
2022-10-15T22:21:39.876Z,3.67
2022-10-15T22:26:43.356Z,3.33
2022-10-15T22:29:20.425Z,3.65
2022-10-15T22:31:48.922Z,3.78
2022-10-15T22:34:17.627Z,3.55
2022-10-15T22:36:46.319Z,3.50
2022-10-15T22:39:18.464Z,4.10
2022-10-15T22:41:48.813Z,3.47
2022-10-15T22:44:20.862Z,3.65
2022-10-15T22:46:50.111Z,3.50
2022-10-15T22:49:21.110Z,3.30
2022-10-15T22:51:50.360Z,3.72
2022-10-15T22:54:22.782Z,3.55
2022-10-15T22:56:51.910Z,3.33
2022-10-15T22:59:20.781Z,3.42
2022-10-15T23:01:49.134Z,3.60
2022-10-15T23:04:18.019Z,3.78
2022-10-15T23:06:46.370Z,3.92
2022-10-15T23:09:17.929Z,3.92
2022-10-15T23:11:48.192Z,3.50
2022-10-15T23:14:18.539Z,3.65
2022-10-15T23:16:49.028Z,3.72
2022-10-15T23:19:20.073Z,3.60
2022-10-15T23:21:50.542Z,3.33
2022-10-15T23:24:21.322Z,3.85
2022-10-15T23:29:22.333Z,3.97
2022-10-15T23:31:52.723Z,4.15
2022-10-15T23:34:23.233Z,3.92
2022-10-15T23:36:52.628Z,3.80
2022-10-15T23:39:23.449Z,4.68
2022-10-15T23:41:53.531Z,3.78
2022-10-15T23:44:25.350Z,4.13
2022-10-15T23:46:54.019Z,3.30
2022-10-15T23:49:22.343Z,3.22
2022-10-15T23:51:50.615Z,3.92
2022-10-15T23:54:19.876Z,3.70
2022-10-15T23:56:49.009Z,3.70
2022-10-15T23:59:18.661Z,3.85
